Terminal Aerodrome Forecast
Issued by NWS Blacksburg, VA

Home | Current Version | Previous Version | Text Only | Print | Product List | Glossary On
Versions: 1 2 3 4 5 6 7 8 9 10 11 12 13 14 15 16 17 18 19 20 21 22 23 24 25 26 27 28 29 30 31 32 33 34 35 36 37 38 39 40 41 42 43
000
FTUS41 KRNK 031139
TAFROA
TAF
KROA 031139Z 0312/0412 14005KT P6SM OVC025
     FM031500 13005KT 4SM -FZDZ BR OVC012
     FM031900 15004KT 2SM -RA BR OVC008
     FM040200 20005KT 1 1/2SM BR OVC004 WS018/25044KT
     FM040800 23006KT 4SM BR OVC008 WS020/25045KT=

USA.gov is the U.S. government's official web portal to all federal, state and local government web resources and services.